Startpagina
METAR-TAF:

Vliegvelden :

Oostende, België

Internationale Luchthaven Oostende-Brugge

breedte: 51-12N, lengte: 002-52E, hoogte: 4 m

Actueel weer

Dit bericht is 35 minuten geleden gemaakt, om 22:50 UTC
Wind 4 kt uit het zuidzuidwesten
Temperatuur 14°C
Vochtigheid 94%
Druk 1022 hPa
Zicht 10 km of meer
geen wolken onder 1500 m en geen cumulonimbus

METAR: EBOS 312250Z 20004KT CAVOK 14/13 Q1022 NOSIG

Tijdstip: 01:25 (23:25 UTC)

Verwachting

Dit bericht is 6 uur en het 15 minuten geleden gemaakt, om 17:10 UTC
Verwachting geldig van 31 om 18 UTC tot 01 om 24 UTC
Wind 7 kt uit het westen
Zicht 10 km of meer
Weinig wolken op 2500 ft
Verspreide wolken op 4500 ft

TAF: EBOS 311710Z 3118/0124 27007KT 9999 FEW025 SCT045

METAR-TAF

Waarnemingen en weersverwachtingen van meer dan 4000 vliegvelden (METAR en TAF).

De beschikbare stations zijn de gele en rode punten op de kaart.

Ga met uw muis naar het station om de naam te zien.

Klik dan om waarnemingen en weersverwachtingen te zien.

kaart wijzigen: klik op de groene knoppen met een zwart kruis om in te zoomen, op de groene knop met een streepje om uit te zoomen of op de groene pijlen voor aangrenzende kaarten.


METAR-TAF: